Goodwin, Arkansas
Current Conditions -  °F | °C
As of 8:35 AM on Sunday 25 Jan 2015 (Local Time) from KSGT Reporting Station
Overcast Overcast  
Wind Chill: 39°   Ceiling: 8000
Heat Index: 46°   Visibility: 10mi
Dew Point: 36°   Wind: 17mph
Humidity: 66%   Direction: 230°SW
Pressure: 29.77"   Gusts: 22mph
Location:  34.94°N, 91.02°W
Report Text: KSGT 251435Z AUTO 23015G19KT 10SM OVC080 08/02 A2977 RMK AO1
Loading
Personal Weather Stations






























Interactive Weather Map New forecast layout! Learn more

10-Day Weather Forecast

Advertisements
Track Severe Weather on mobile